createdAt,value
2019-02-05T00:00:22.975Z,2.40
2019-02-05T00:02:51.602Z,2.40
2019-02-05T00:05:20.026Z,2.37
2019-02-05T00:07:48.416Z,2.24
2019-02-05T00:10:16.927Z,2.12
2019-02-05T00:12:45.329Z,1.93
2019-02-05T00:15:13.768Z,1.93
2019-02-05T00:17:42.185Z,1.77
2019-02-05T00:20:11.022Z,1.85
2019-02-05T00:22:39.423Z,1.95
2019-02-05T00:25:07.845Z,2.07
2019-02-05T00:27:36.287Z,2.30
2019-02-05T00:30:07.485Z,2.23
2019-02-05T00:32:35.948Z,2.00
2019-02-05T00:35:06.101Z,2.07
2019-02-05T00:37:34.538Z,2.00
2019-02-05T00:40:03.370Z,1.96
2019-02-05T00:42:31.837Z,2.30
2019-02-05T00:45:00.303Z,2.30
2019-02-05T00:47:28.684Z,2.32
2019-02-05T00:49:57.362Z,2.30
2019-02-05T00:52:25.789Z,2.11
2019-02-05T00:54:54.207Z,2.38
2019-02-05T00:57:22.640Z,2.47
2019-02-05T00:59:51.100Z,2.28
2019-02-05T01:02:19.737Z,2.09
2019-02-05T01:04:48.173Z,2.58
2019-02-05T01:07:16.724Z,2.02
2019-02-05T01:09:45.153Z,2.32
2019-02-05T01:12:13.695Z,1.94
2019-02-05T01:14:42.119Z,1.84
2019-02-05T01:17:10.579Z,1.74
2019-02-05T01:19:38.985Z,1.94
2019-02-05T01:22:07.681Z,2.40
2019-02-05T01:24:36.077Z,1.94
2019-02-05T01:27:04.602Z,1.84
2019-02-05T01:29:33.049Z,1.89
2019-02-05T01:32:01.501Z,1.97
2019-02-05T01:34:29.899Z,2.08
2019-02-05T01:36:58.474Z,2.16
2019-02-05T01:39:26.892Z,2.08
2019-02-05T01:41:55.350Z,1.76
2019-02-05T01:44:23.746Z,1.75
2019-02-05T01:46:52.194Z,1.65
2019-02-05T01:49:20.607Z,1.69
2019-02-05T01:51:49.033Z,1.71
2019-02-05T01:54:17.489Z,1.64
2019-02-05T01:56:45.927Z,1.61
2019-02-05T01:59:14.378Z,1.12
2019-02-05T02:01:42.778Z,1.51
2019-02-05T02:04:11.266Z,1.80
2019-02-05T02:06:39.765Z,1.56
2019-02-05T02:09:09.059Z,1.84
2019-02-05T02:11:37.495Z,1.58
2019-02-05T02:14:06.049Z,1.58
2019-02-05T02:16:34.509Z,1.38
2019-02-05T02:19:03.206Z,1.77
2019-02-05T02:21:31.637Z,1.64
2019-02-05T02:24:00.037Z,1.29
2019-02-05T02:26:28.467Z,1.44
2019-02-05T02:28:57.057Z,1.23
2019-02-05T02:31:25.634Z,1.18
2019-02-05T02:33:54.041Z,1.20
2019-02-05T02:36:22.565Z,1.16
2019-02-05T02:38:50.984Z,1.37
2019-02-05T02:41:19.757Z,1.79
2019-02-05T02:43:48.219Z,1.21
2019-02-05T02:46:16.816Z,1.36
2019-02-05T02:48:45.259Z,1.54
2019-02-05T02:51:13.691Z,1.46
2019-02-05T02:53:42.146Z,1.19
2019-02-05T02:56:10.668Z,1.11
2019-02-05T02:58:39.125Z,1.32
2019-02-05T03:01:07.592Z,0.88
2019-02-05T03:03:35.998Z,0.67
2019-02-05T03:06:04.702Z,0.66
2019-02-05T03:08:33.122Z,0.82
2019-02-05T03:11:01.601Z,1.13
2019-02-05T03:13:30.063Z,0.71
2019-02-05T03:15:58.550Z,0.85
2019-02-05T03:18:27.082Z,1.05
2019-02-05T03:20:55.643Z,0.69
2019-02-05T03:23:24.047Z,0.97
2019-02-05T03:25:52.627Z,1.07
2019-02-05T03:28:21.067Z,0.64
2019-02-05T03:30:49.493Z,0.42
2019-02-05T03:33:19.613Z,0.43
2019-02-05T03:35:48.081Z,0.47
2019-02-05T03:38:16.485Z,0.55
2019-02-05T03:40:50.568Z,0.42
2019-02-05T03:43:18.999Z,0.35
2019-02-05T03:45:47.420Z,0.16
2019-02-05T03:48:17.093Z,0.14
2019-02-05T03:50:51.719Z,0.17
2019-02-05T03:53:39.827Z,0.29
2019-02-05T03:56:14.089Z,0.26
2019-02-05T03:59:10.226Z,0.36
2019-02-05T04:02:15.718Z,0.26
2019-02-05T04:05:05.051Z,0.25
2019-02-05T04:07:42.431Z,0.24
2019-02-05T04:10:25.788Z,0.24
2019-02-05T04:13:18.381Z,0.46
2019-02-05T04:15:55.366Z,0.46
2019-02-05T04:18:38.981Z,0.90
2019-02-05T04:21:31.435Z,0.90
2019-02-05T04:24:20.613Z,1.24
2019-02-05T04:27:11.663Z,1.24
2019-02-05T04:30:01.043Z,0.83
2019-02-05T04:32:44.465Z,0.96
2019-02-05T04:35:27.827Z,0.68
2019-02-05T04:38:23.461Z,0.59
2019-02-05T04:41:14.190Z,0.38
2019-02-05T04:43:45.682Z,0.72
2019-02-05T04:46:35.301Z,0.45
2019-02-05T04:49:15.576Z,0.71
2019-02-05T04:51:47.227Z,0.63
2019-02-05T04:54:18.777Z,0.54
2019-02-05T04:57:05.282Z,0.16
2019-02-05T04:59:59.490Z,0.24
2019-02-05T05:02:52.200Z,0.44
2019-02-05T05:05:49.226Z,0.44
2019-02-05T05:08:38.932Z,0.41
2019-02-05T05:11:07.446Z,0.74
2019-02-05T05:13:36.028Z,0.64
2019-02-05T05:16:04.777Z,0.52
2019-02-05T05:18:34.207Z,0.28
2019-02-05T05:21:03.189Z,0.32
2019-02-05T05:23:32.388Z,0.62
2019-02-05T05:26:01.099Z,0.54
2019-02-05T05:28:29.658Z,0.23
2019-02-05T05:30:58.354Z,0.46
2019-02-05T05:33:26.777Z,0.46
2019-02-05T05:35:55.259Z,0.26
2019-02-05T05:38:23.800Z,0.79
2019-02-05T05:40:52.240Z,0.65
2019-02-05T05:43:20.695Z,0.21
2019-02-05T05:45:49.098Z,0.13
2019-02-05T05:48:17.560Z,0.45
2019-02-05T05:50:45.962Z,0.42
2019-02-05T05:53:14.385Z,0.28
2019-02-05T05:55:42.821Z,0.37
2019-02-05T05:58:22.381Z,0.10
2019-02-05T06:00:41.459Z,0.17
2019-02-05T06:03:10.245Z,0.18
2019-02-05T06:05:38.714Z,0.47
2019-02-05T06:08:07.145Z,0.02
2019-02-05T06:10:35.686Z,0.10
2019-02-05T06:13:04.444Z,-0.02
2019-02-05T06:15:35.746Z,0.04
2019-02-05T06:18:03.198Z,0.30
2019-02-05T06:20:33.397Z,0.36
2019-02-05T06:23:01.865Z,0.28
2019-02-05T06:25:30.344Z,0.30
2019-02-05T06:27:58.893Z,0.30
2019-02-05T06:30:27.307Z,0.22
2019-02-05T06:32:55.754Z,-0.04
2019-02-05T06:35:24.233Z,0.23
2019-02-05T06:37:53.005Z,-0.29
2019-02-05T06:40:22.167Z,0.12
2019-02-05T06:42:50.575Z,0.18
2019-02-05T06:45:19.018Z,0.18
2019-02-05T06:47:47.621Z,0.25
2019-02-05T06:50:16.200Z,0.13
2019-02-05T06:52:44.639Z,0.19
2019-02-05T06:55:15.041Z,0.19
2019-02-05T06:57:43.720Z,0.12
2019-02-05T07:00:15.233Z,-0.05
2019-02-05T07:02:43.707Z,0.08
2019-02-05T07:05:12.673Z,-0.07
2019-02-05T07:07:41.191Z,-0.16
2019-02-05T07:10:13.421Z,0.05
2019-02-05T07:12:41.835Z,-0.17
2019-02-05T07:15:10.920Z,-0.12
2019-02-05T07:17:49.309Z,0.04
2019-02-05T07:20:17.125Z,0.31
2019-02-05T07:22:45.631Z,0.29
2019-02-05T07:25:21.914Z,0.41
2019-02-05T07:27:50.712Z,0.53
2019-02-05T07:30:21.465Z,0.53
2019-02-05T07:32:49.878Z,0.40
2019-02-05T07:35:18.461Z,0.46
2019-02-05T07:37:47.137Z,0.57
2019-02-05T07:40:18.666Z,0.35
2019-02-05T07:42:48.835Z,0.25
2019-02-05T07:45:23.739Z,0.68
2019-02-05T07:47:52.421Z,0.24
2019-02-05T07:50:23.977Z,0.24
2019-02-05T07:52:52.411Z,0.77
2019-02-05T07:55:21.022Z,0.46
2019-02-05T07:57:49.613Z,0.37
2019-02-05T08:00:20.724Z,0.80
2019-02-05T08:02:49.388Z,0.74
2019-02-05T08:05:20.231Z,0.96
2019-02-05T08:07:49.615Z,0.85
2019-02-05T08:10:20.294Z,0.81
2019-02-05T08:12:49.223Z,1.14
2019-02-05T08:15:34.589Z,1.56
2019-02-05T08:18:03.070Z,1.52
2019-02-05T08:20:31.761Z,1.34
2019-02-05T08:23:00.343Z,1.44
2019-02-05T08:25:28.763Z,1.41
2019-02-05T08:27:57.382Z,1.36
2019-02-05T08:30:31.403Z,1.60
2019-02-05T08:33:00.015Z,1.11
2019-02-05T08:35:28.720Z,1.14
2019-02-05T08:37:57.130Z,1.25
2019-02-05T08:40:25.655Z,1.60
2019-02-05T08:42:54.204Z,1.82
2019-02-05T08:45:29.072Z,1.92
2019-02-05T08:47:57.475Z,2.03
2019-02-05T08:50:27.861Z,1.86
2019-02-05T08:52:56.276Z,1.58
2019-02-05T08:55:24.734Z,1.83
2019-02-05T08:58:01.651Z,1.62
2019-02-05T09:00:33.065Z,1.47
2019-02-05T09:03:01.760Z,2.11
2019-02-05T09:05:30.162Z,1.71
2019-02-05T09:07:58.777Z,1.91
2019-02-05T09:10:29.749Z,1.68
2019-02-05T09:12:58.234Z,2.10
2019-02-05T09:15:29.603Z,2.43
2019-02-05T09:17:57.616Z,2.41
2019-02-05T09:20:26.152Z,2.06
2019-02-05T09:22:54.954Z,2.35
2019-02-05T09:25:23.786Z,2.54
2019-02-05T09:27:52.204Z,2.64
2019-02-05T09:30:22.682Z,2.14
2019-02-05T09:32:53.337Z,2.60
2019-02-05T09:35:21.894Z,2.64
2019-02-05T09:37:50.384Z,2.75
2019-02-05T09:40:21.868Z,2.89
2019-02-05T09:42:50.351Z,2.53
2019-02-05T09:45:19.979Z,2.63
2019-02-05T09:47:48.582Z,2.82
2019-02-05T09:50:18.119Z,2.45
2019-02-05T09:52:46.807Z,2.52
2019-02-05T09:55:19.336Z,2.44
2019-02-05T09:57:47.829Z,2.31
2019-02-05T10:00:27.252Z,2.95
2019-02-05T10:02:56.729Z,3.05
2019-02-05T10:05:27.273Z,2.80
2019-02-05T10:07:55.877Z,2.97
2019-02-05T10:10:24.348Z,3.02
2019-02-05T10:12:53.041Z,2.91
2019-02-05T10:15:33.244Z,3.17
2019-02-05T10:18:02.194Z,3.23
2019-02-05T10:20:30.851Z,3.45
2019-02-05T10:23:01.656Z,3.43
2019-02-05T10:25:30.206Z,3.45
2019-02-05T10:27:58.640Z,3.74
2019-02-05T10:30:31.957Z,3.51
2019-02-05T10:33:02.344Z,3.63
2019-02-05T10:35:30.888Z,3.69
2019-02-05T10:37:59.960Z,3.76
2019-02-05T10:40:29.008Z,3.67
2019-02-05T10:42:57.485Z,3.29
2019-02-05T10:45:27.275Z,3.73
2019-02-05T10:47:55.841Z,3.95
2019-02-05T10:50:24.696Z,3.95
2019-02-05T10:52:53.262Z,3.92
2019-02-05T10:55:22.830Z,3.99
2019-02-05T10:57:53.296Z,3.98
2019-02-05T11:00:25.633Z,4.14
2019-02-05T11:02:54.515Z,4.39
2019-02-05T11:05:25.452Z,4.17
2019-02-05T11:07:53.920Z,4.77
2019-02-05T11:10:22.685Z,5.14
2019-02-05T11:12:51.271Z,4.87
2019-02-05T11:15:25.793Z,4.65
2019-02-05T11:17:54.274Z,5.13
2019-02-05T11:20:24.734Z,5.03
2019-02-05T11:22:53.263Z,4.86
2019-02-05T11:25:22.038Z,5.49
2019-02-05T11:27:50.634Z,5.97
2019-02-05T11:30:30.636Z,6.40
2019-02-05T11:32:59.232Z,6.25
2019-02-05T11:35:28.281Z,6.59
2019-02-05T11:37:56.930Z,6.54
2019-02-05T11:40:30.695Z,6.42
2019-02-05T11:42:59.168Z,6.20
2019-02-05T11:45:28.193Z,6.02
2019-02-05T11:47:57.544Z,6.03
2019-02-05T11:50:26.210Z,5.93
2019-02-05T11:52:54.967Z,6.01
2019-02-05T11:55:25.949Z,5.78
2019-02-05T11:57:54.369Z,5.87
2019-02-05T12:00:32.309Z,5.87
2019-02-05T12:02:55.217Z,5.76
2019-02-05T12:05:23.834Z,5.94
2019-02-05T12:07:52.517Z,5.95
2019-02-05T12:10:20.935Z,5.86
2019-02-05T12:12:50.238Z,6.03
2019-02-05T12:15:19.790Z,5.84
2019-02-05T12:17:48.184Z,6.18
2019-02-05T12:20:18.060Z,6.07
2019-02-05T12:22:47.534Z,6.24
2019-02-05T12:25:18.831Z,6.18
2019-02-05T12:27:47.538Z,6.18
2019-02-05T12:30:27.520Z,6.08
2019-02-05T12:32:56.474Z,6.28
2019-02-05T12:35:25.138Z,6.49
2019-02-05T12:37:53.674Z,6.47
2019-02-05T12:40:22.533Z,6.98
2019-02-05T12:42:51.105Z,8.09
2019-02-05T12:45:28.276Z,6.97
2019-02-05T12:47:56.759Z,7.21
2019-02-05T12:50:28.317Z,6.94
2019-02-05T12:52:56.811Z,6.91
2019-02-05T12:55:25.746Z,7.08
2019-02-05T12:57:54.637Z,7.02
2019-02-05T13:00:25.782Z,7.51
2019-02-05T13:02:54.754Z,7.58
2019-02-05T13:05:23.552Z,7.33
2019-02-05T13:07:52.000Z,7.15
2019-02-05T13:10:24.083Z,6.85
2019-02-05T13:12:52.831Z,6.60
2019-02-05T13:15:21.239Z,6.45
2019-02-05T13:17:49.822Z,6.57
2019-02-05T13:20:27.129Z,6.64
2019-02-05T13:22:56.114Z,6.56
2019-02-05T13:25:26.789Z,6.74
2019-02-05T13:27:55.163Z,7.27
2019-02-05T13:30:28.487Z,7.52
2019-02-05T13:32:57.071Z,8.11
2019-02-05T13:35:26.113Z,9.05
2019-02-05T13:37:54.674Z,8.27
2019-02-05T13:40:25.737Z,8.44
2019-02-05T13:42:54.886Z,8.14
2019-02-05T13:45:25.944Z,8.64
2019-02-05T13:47:54.529Z,9.14
2019-02-05T13:50:33.238Z,9.44
2019-02-05T13:52:55.486Z,9.16
2019-02-05T13:55:32.143Z,8.45
2019-02-05T13:58:00.731Z,8.53
2019-02-05T14:00:40.556Z,8.42
2019-02-05T14:03:10.502Z,7.83
2019-02-05T14:05:39.238Z,7.79
2019-02-05T14:08:08.230Z,7.77
2019-02-05T14:10:41.793Z,7.72
2019-02-05T14:13:10.289Z,7.71
2019-02-05T14:15:41.278Z,7.73
2019-02-05T14:18:10.554Z,7.87
2019-02-05T14:20:39.453Z,7.80
2019-02-05T14:23:08.189Z,7.55
2019-02-05T14:25:36.624Z,7.56
2019-02-05T14:28:05.200Z,7.54
2019-02-05T14:30:42.228Z,7.54
2019-02-05T14:33:10.838Z,7.43
2019-02-05T14:35:39.406Z,7.23
2019-02-05T14:38:08.290Z,7.12
2019-02-05T14:40:36.720Z,7.12
2019-02-05T14:43:05.850Z,7.02
2019-02-05T14:45:35.870Z,7.01
2019-02-05T14:48:04.935Z,7.00
2019-02-05T14:50:35.596Z,7.03
2019-02-05T14:53:05.072Z,7.29
2019-02-05T14:55:33.506Z,6.91
2019-02-05T14:58:02.211Z,6.91
2019-02-05T15:00:33.012Z,6.84
2019-02-05T15:03:02.623Z,7.02
2019-02-05T15:05:31.090Z,6.98
2019-02-05T15:07:59.740Z,6.98
2019-02-05T15:10:28.302Z,7.19
2019-02-05T15:12:56.787Z,7.16
2019-02-05T15:15:30.000Z,7.28
2019-02-05T15:17:59.067Z,7.11
2019-02-05T15:20:30.522Z,7.20
2019-02-05T15:22:59.274Z,7.25
2019-02-05T15:25:27.860Z,7.34
2019-02-05T15:27:56.476Z,7.15
2019-02-05T15:30:27.976Z,7.07
2019-02-05T15:33:06.570Z,6.94
2019-02-05T15:35:34.986Z,7.01
2019-02-05T15:38:03.587Z,6.93
2019-02-05T15:40:32.078Z,6.99
2019-02-05T15:43:00.486Z,6.86
2019-02-05T15:45:28.985Z,6.83
2019-02-05T15:47:57.509Z,6.80
2019-02-05T15:50:26.115Z,6.82
2019-02-05T15:52:54.564Z,6.89
2019-02-05T15:55:22.967Z,6.83
2019-02-05T15:57:51.435Z,6.69
2019-02-05T16:00:27.350Z,6.81
2019-02-05T16:02:55.899Z,6.77
2019-02-05T16:05:24.476Z,6.63
2019-02-05T16:07:52.996Z,6.64
2019-02-05T16:10:23.292Z,6.73
2019-02-05T16:12:51.804Z,6.77
2019-02-05T16:15:20.715Z,6.68
2019-02-05T16:17:49.300Z,6.52
2019-02-05T16:20:19.105Z,6.58
2019-02-05T16:22:49.105Z,6.67
2019-02-05T16:25:17.988Z,6.58
2019-02-05T16:27:46.574Z,6.70
2019-02-05T16:30:26.835Z,6.55
2019-02-05T16:32:55.358Z,6.52
2019-02-05T16:35:23.857Z,6.55
2019-02-05T16:37:53.555Z,6.58
2019-02-05T16:40:39.087Z,6.30
2019-02-05T16:43:07.579Z,6.51
2019-02-05T16:45:36.157Z,6.22
2019-02-05T16:48:05.042Z,6.17
2019-02-05T16:50:42.408Z,6.06
2019-02-05T16:53:11.490Z,6.03
2019-02-05T16:55:39.941Z,6.21
2019-02-05T16:58:08.461Z,6.06
2019-02-05T17:00:38.047Z,5.95
2019-02-05T17:03:07.308Z,6.08
2019-02-05T17:05:38.451Z,6.04
2019-02-05T17:08:07.584Z,6.05
2019-02-05T17:10:36.032Z,6.04
2019-02-05T17:13:05.117Z,6.14
2019-02-05T17:15:45.029Z,6.08
2019-02-05T17:18:23.197Z,6.20
2019-02-05T17:20:46.611Z,6.18
2019-02-05T17:23:15.290Z,6.12
2019-02-05T17:25:43.796Z,6.06
2019-02-05T17:28:13.017Z,6.15
2019-02-05T17:30:41.782Z,6.14
2019-02-05T17:33:10.343Z,6.15
2019-02-05T17:35:38.821Z,6.18
2019-02-05T17:38:08.763Z,6.24
2019-02-05T17:40:37.384Z,6.26
2019-02-05T17:43:06.870Z,6.23
2019-02-05T17:45:40.037Z,6.04
2019-02-05T17:48:11.741Z,6.28
2019-02-05T17:50:41.244Z,6.16
2019-02-05T17:53:09.883Z,6.17
2019-02-05T17:55:38.481Z,6.32
2019-02-05T17:58:07.059Z,6.24
2019-02-05T18:00:37.299Z,6.17
2019-02-05T18:03:06.550Z,6.07
2019-02-05T18:05:35.498Z,6.13
2019-02-05T18:08:04.385Z,6.10
2019-02-05T18:10:33.044Z,6.26
2019-02-05T18:13:01.702Z,6.24
2019-02-05T18:15:32.835Z,6.30
2019-02-05T18:18:01.564Z,6.21
2019-02-05T18:20:30.213Z,6.14
2019-02-05T18:22:58.803Z,6.04
2019-02-05T18:25:27.357Z,5.96
2019-02-05T18:27:55.995Z,5.90
2019-02-05T18:30:38.569Z,6.09
2019-02-05T18:33:07.667Z,6.19
2019-02-05T18:35:36.221Z,5.79
2019-02-05T18:38:10.756Z,5.89
2019-02-05T18:40:39.525Z,5.79
2019-02-05T18:43:08.345Z,5.92
2019-02-05T18:45:37.087Z,5.99
2019-02-05T18:48:06.407Z,5.85
2019-02-05T18:50:36.614Z,5.79
2019-02-05T18:53:05.303Z,5.77
2019-02-05T18:55:54.677Z,5.54
2019-02-05T18:58:26.647Z,5.47
2019-02-05T19:00:54.990Z,5.61
2019-02-05T19:03:24.808Z,5.51
2019-02-05T19:05:55.639Z,5.45
2019-02-05T19:08:24.297Z,5.88
2019-02-05T19:10:53.596Z,5.66
2019-02-05T19:13:22.386Z,5.60
2019-02-05T19:15:51.048Z,5.39
2019-02-05T19:18:22.102Z,5.45
2019-02-05T19:20:50.756Z,5.34
2019-02-05T19:23:19.395Z,5.28
2019-02-05T19:25:58.976Z,5.48
2019-02-05T19:28:32.367Z,5.24
2019-02-05T19:31:04.056Z,5.40
2019-02-05T19:33:34.959Z,5.33
2019-02-05T19:36:03.874Z,5.40
2019-02-05T19:38:32.562Z,5.28
2019-02-05T19:41:01.606Z,5.40
2019-02-05T19:43:30.261Z,5.51
2019-02-05T19:46:00.510Z,5.55
2019-02-05T19:48:49.076Z,5.48
2019-02-05T19:51:17.869Z,5.29
2019-02-05T19:53:58.334Z,5.38
2019-02-05T19:56:37.674Z,5.17
2019-02-05T19:58:57.660Z,5.33
2019-02-05T20:01:29.305Z,5.14
2019-02-05T20:03:58.037Z,5.05
2019-02-05T20:06:29.822Z,4.87
2019-02-05T20:09:01.803Z,4.84
2019-02-05T20:11:31.932Z,5.02
2019-02-05T20:14:00.594Z,5.05
2019-02-05T20:16:29.285Z,5.05
2019-02-05T20:18:58.062Z,4.87
2019-02-05T20:21:26.743Z,4.70
2019-02-05T20:23:58.548Z,4.50
2019-02-05T20:26:30.677Z,4.48
2019-02-05T20:28:59.485Z,4.60
2019-02-05T20:31:30.288Z,4.43
2019-02-05T20:34:00.725Z,4.13
2019-02-05T20:36:29.347Z,4.34
2019-02-05T20:39:01.290Z,4.16
2019-02-05T20:41:30.236Z,4.02
2019-02-05T20:44:21.147Z,3.70
2019-02-05T20:46:49.869Z,3.50
2019-02-05T20:49:23.123Z,3.66
2019-02-05T20:51:51.909Z,3.54
2019-02-05T20:54:20.700Z,3.50
2019-02-05T20:56:49.377Z,3.60
2019-02-05T20:59:18.147Z,4.26
2019-02-05T21:01:46.823Z,4.26
2019-02-05T21:04:15.536Z,4.25
2019-02-05T21:06:44.086Z,4.47
2019-02-05T21:09:15.198Z,4.28
2019-02-05T21:11:43.790Z,4.36
2019-02-05T21:14:12.340Z,4.20
2019-02-05T21:16:41.112Z,4.40
2019-02-05T21:19:11.304Z,4.35
2019-02-05T21:21:39.951Z,4.13
2019-02-05T21:24:08.912Z,3.89
2019-02-05T21:26:37.592Z,3.78
2019-02-05T21:29:06.229Z,3.72
2019-02-05T21:31:37.723Z,3.68
2019-02-05T21:34:15.248Z,3.56
2019-02-05T21:36:36.945Z,3.37
2019-02-05T21:39:08.721Z,2.99
2019-02-05T21:41:37.283Z,2.91
